OOCL New Zealand — VRFS2 — position and weather

sailwx.info

Track history (hours):
 
Tides and Currents Weather Stations Pressure Air Temp Water Temp Dewpoint Dewpoint Depression Visibility Wind Speed Wind Dir Waves Ship Positions

OOCL New Zealand

Last reported at 2017-Dec-10 07:33 UTC. Time now 2017-Dec-13 16:59 UTC.
Position N 25°35' E 121°03'.

Length 261 m; draft 9 m.

Type: Cargo ship. MMSI: 477612200.

Date/timePositionNaut miles runAvg speedWind from/ knotsBaromVisibWave heightAir tempDewpointWater temp
2017-Dec-10 07:33N 25°35' E 121°03'419.5
2017-Dec-10 07:20N 25°32' E 120°59'618.7
2017-Dec-10 07:01N 25°29' E 120°53'1019.0
2017-Dec-10 06:30N 25°24' E 120°44'3819.3
2017-Dec-10 04:33N 25°04' E 120°09'3520.7
2017-Dec-10 02:52N 24°47' E 119°36'821.2
2017-Dec-10 02:28N 24°42' E 119°28'1020.6
2017-Dec-10 01:59N 24°37' E 119°18'2320.4
2017-Dec-10 00:52N 24°26' E 118°57'719.5
2017-Dec-10 00:29N 24°22' E 118°50'1019.8
2017-Dec-10 00:01N 24°17' E 118°41'1019.7
2017-Dec-09 23:30N 24°15' E 118°30'918.5
2017-Dec-09 23:00N 24°13' E 118°20'815.2
2017-Dec-09 22:30N 24°17' E 118°13'815.3
2017-Dec-09 22:01N 24°23' E 118°07'612.2
2017-Dec-09 21:31N 24°27' E 118°03'4 7.1
2017-Dec-09 21:00N 24°31' E 118°05'0 0.0
2017-Dec-09 12:35N 24°31' E 118°05'0 0.0
2017-Dec-09 12:17N 24°31' E 118°05'1 2.6
2017-Dec-09 11:55N 24°30' E 118°04'4 9.6
2017-Dec-09 11:31N 24°26' E 118°04'611.8
2017-Dec-09 11:01N 24°22' E 118°08'4 8.6
2017-Dec-09 10:31N 24°19' E 118°12'713.0
2017-Dec-09 10:00N 24°14' E 118°17'712.6
2017-Dec-09 09:27N 24°08' E 118°15'716.4
2017-Dec-09 09:00N 24°02' E 118°10'1217.1
2017-Dec-09 08:19N 23°52' E 118°03'23615.8
2017-Dec-08 17:26N 22°20' E 114°07'  
2017-Dec-04 06:00N 10°48' E 102°06'   110 / 81005.0 5.4 29.026.2
Track history (hours):
 
Tides and Currents Weather Stations Pressure Air Temp Water Temp Dewpoint Dewpoint Depression Visibility Wind Speed Wind Dir Waves Ship Positions

OOCL New Zealand

Last reported at 2017-Dec-10 07:33 UTC. Time now 2017-Dec-13 16:59 UTC.
Position N 25°35' E 121°03'.

Length 261 m; draft 9 m.

Type: Cargo ship. MMSI: 477612200.

Date/timePositionNaut miles runAvg speedWind from/ knotsBaromVisibWave heightAir tempDewpointWater temp
2017-Dec-10 07:33N 25°35' E 121°03'419.5
2017-Dec-10 07:20N 25°32' E 120°59'618.7
2017-Dec-10 07:01N 25°29' E 120°53'1019.0
2017-Dec-10 06:30N 25°24' E 120°44'3819.3
2017-Dec-10 04:33N 25°04' E 120°09'3520.7
2017-Dec-10 02:52N 24°47' E 119°36'821.2
2017-Dec-10 02:28N 24°42' E 119°28'1020.6
2017-Dec-10 01:59N 24°37' E 119°18'2320.4
2017-Dec-10 00:52N 24°26' E 118°57'719.5
2017-Dec-10 00:29N 24°22' E 118°50'1019.8
2017-Dec-10 00:01N 24°17' E 118°41'1019.7
2017-Dec-09 23:30N 24°15' E 118°30'918.5
2017-Dec-09 23:00N 24°13' E 118°20'815.2
2017-Dec-09 22:30N 24°17' E 118°13'815.3
2017-Dec-09 22:01N 24°23' E 118°07'612.2
2017-Dec-09 21:31N 24°27' E 118°03'4 7.1
2017-Dec-09 21:00N 24°31' E 118°05'0 0.0
2017-Dec-09 12:35N 24°31' E 118°05'0 0.0
2017-Dec-09 12:17N 24°31' E 118°05'1 2.6
2017-Dec-09 11:55N 24°30' E 118°04'4 9.6
2017-Dec-09 11:31N 24°26' E 118°04'611.8
2017-Dec-09 11:01N 24°22' E 118°08'4 8.6
2017-Dec-09 10:31N 24°19' E 118°12'713.0
2017-Dec-09 10:00N 24°14' E 118°17'712.6
2017-Dec-09 09:27N 24°08' E 118°15'716.4
2017-Dec-09 09:00N 24°02' E 118°10'1217.1
2017-Dec-09 08:19N 23°52' E 118°03'23615.8
2017-Dec-08 17:26N 22°20' E 114°07'  
2017-Dec-04 06:00N 10°48' E 102°06'   110 / 81005.0 5.4 29.026.2

Dump ship's entire track history